createdAt,value
2023-11-07T00:03:46.575Z,8.10
2023-11-07T00:09:11.549Z,8.10
2023-11-07T00:14:33.385Z,8.10
2023-11-07T00:19:57.947Z,8.10
2023-11-07T00:25:19.791Z,7.90
2023-11-07T00:30:41.389Z,8.00
2023-11-07T00:36:02.951Z,7.90
2023-11-07T00:41:25.035Z,8.00
2023-11-07T00:46:47.191Z,8.00
2023-11-07T00:52:08.980Z,8.00
2023-11-07T00:57:30.510Z,7.90
2023-11-07T01:02:52.489Z,7.90
2023-11-07T01:08:15.688Z,7.80
2023-11-07T01:13:38.376Z,8.00
2023-11-07T01:19:00.257Z,8.00
2023-11-07T01:24:22.073Z,8.00
2023-11-07T01:29:43.621Z,8.00
2023-11-07T01:35:06.060Z,8.20
2023-11-07T01:40:29.125Z,8.20
2023-11-07T01:45:50.788Z,8.30
2023-11-07T01:51:14.161Z,8.30
2023-11-07T01:56:35.962Z,8.40
2023-11-07T02:02:08.031Z,8.50
2023-11-07T02:07:29.599Z,8.50
2023-11-07T02:12:51.432Z,8.50
2023-11-07T02:18:13.074Z,8.60
2023-11-07T02:23:34.685Z,8.60
2023-11-07T02:28:57.115Z,8.60
2023-11-07T02:34:21.637Z,8.50
2023-11-07T02:39:43.311Z,8.50
2023-11-07T02:45:05.395Z,8.40
2023-11-07T02:50:27.016Z,8.40
2023-11-07T02:55:48.742Z,8.40
2023-11-07T03:01:10.327Z,8.30
2023-11-07T03:06:32.145Z,8.50
2023-11-07T03:11:53.774Z,8.40
2023-11-07T03:17:15.301Z,8.60
2023-11-07T03:22:37.499Z,8.60
2023-11-07T03:27:59.371Z,8.60
2023-11-07T03:33:22.077Z,8.60
2023-11-07T03:38:46.823Z,8.60
2023-11-07T03:44:08.530Z,8.60
2023-11-07T03:49:29.874Z,8.60
2023-11-07T03:54:51.548Z,8.60
2023-11-07T04:00:13.403Z,8.70
2023-11-07T04:05:35.214Z,8.60
2023-11-07T04:10:56.692Z,8.60
2023-11-07T04:16:21.684Z,8.70
2023-11-07T04:21:44.225Z,8.60
2023-11-07T04:27:09.988Z,8.60
2023-11-07T04:32:31.835Z,8.50
2023-11-07T04:37:56.030Z,8.60
2023-11-07T04:43:17.609Z,8.60
2023-11-07T04:48:40.468Z,8.60
2023-11-07T04:54:03.637Z,8.50
2023-11-07T04:59:25.884Z,8.40
2023-11-07T05:04:47.596Z,8.40
2023-11-07T05:10:13.522Z,8.40
2023-11-07T05:15:35.439Z,8.50
2023-11-07T05:20:56.950Z,8.30
2023-11-07T05:26:18.763Z,8.10
2023-11-07T05:31:40.500Z,8.20
2023-11-07T05:37:02.203Z,8.00
2023-11-07T05:42:26.863Z,8.00
2023-11-07T05:47:48.810Z,7.90
2023-11-07T05:53:10.325Z,8.10
2023-11-07T05:58:31.853Z,8.10
2023-11-07T06:03:55.749Z,8.00
2023-11-07T06:09:17.392Z,8.00
2023-11-07T06:14:39.087Z,8.00
2023-11-07T06:20:01.409Z,8.00
2023-11-07T06:25:23.221Z,8.10
2023-11-07T06:30:45.002Z,8.10
2023-11-07T06:36:06.784Z,8.20
2023-11-07T06:41:29.588Z,8.10
2023-11-07T06:46:52.934Z,8.10
2023-11-07T06:52:14.512Z,8.20
2023-11-07T06:57:36.408Z,8.20
2023-11-07T07:02:58.753Z,8.20
2023-11-07T07:08:24.553Z,8.20
2023-11-07T07:13:46.623Z,8.20
2023-11-07T07:19:08.885Z,8.30
2023-11-07T07:24:31.290Z,8.20
2023-11-07T07:29:55.189Z,8.30
2023-11-07T07:35:17.399Z,8.40
2023-11-07T07:40:39.753Z,8.50
2023-11-07T07:46:01.124Z,8.70
2023-11-07T07:51:22.831Z,8.90
2023-11-07T07:56:49.407Z,9.00
2023-11-07T08:02:11.064Z,9.10
2023-11-07T08:07:34.566Z,9.20
2023-11-07T08:12:57.729Z,9.30
2023-11-07T08:18:19.589Z,9.40
2023-11-07T08:23:41.619Z,9.50
2023-11-07T08:29:09.698Z,9.70
2023-11-07T08:34:34.333Z,9.90
2023-11-07T08:39:58.460Z,10.00
2023-11-07T08:45:22.722Z,10.20
2023-11-07T08:50:44.355Z,10.20
2023-11-07T08:56:06.850Z,10.40
2023-11-07T09:01:28.685Z,10.60
2023-11-07T09:06:50.319Z,10.50
2023-11-07T09:12:11.835Z,10.50
2023-11-07T09:17:36.744Z,11.00
2023-11-07T09:22:58.764Z,11.20
2023-11-07T09:28:20.466Z,11.00
2023-11-07T09:33:42.168Z,11.20
2023-11-07T09:39:04.293Z,11.30
2023-11-07T09:44:26.066Z,11.20
2023-11-07T09:49:48.150Z,11.40
2023-11-07T09:55:12.359Z,11.40
2023-11-07T10:00:39.651Z,11.50
2023-11-07T10:06:01.547Z,11.90
2023-11-07T10:11:23.165Z,11.90
2023-11-07T10:16:46.235Z,12.10
2023-11-07T10:22:08.088Z,12.00
2023-11-07T10:27:32.983Z,12.30
2023-11-07T10:32:57.358Z,12.30
2023-11-07T10:38:20.045Z,12.10
2023-11-07T10:43:42.733Z,12.30
2023-11-07T10:49:06.544Z,12.30
2023-11-07T10:54:34.800Z,12.40
2023-11-07T11:00:12.342Z,12.60
2023-11-07T11:05:36.376Z,12.70
2023-11-07T11:11:00.028Z,12.40
2023-11-07T11:16:24.000Z,12.10
2023-11-07T11:22:16.822Z,11.50
2023-11-07T11:27:47.777Z,11.50
2023-11-07T11:33:13.793Z,11.30
2023-11-07T11:38:41.907Z,11.40
2023-11-07T11:44:16.278Z,11.40
2023-11-07T11:49:58.254Z,11.60
2023-11-07T11:55:19.625Z,11.50
2023-11-07T12:00:41.192Z,11.40
2023-11-07T12:06:04.758Z,11.20
2023-11-07T12:11:32.855Z,11.10
2023-11-07T12:17:02.700Z,11.30
2023-11-07T12:22:24.347Z,11.70
2023-11-07T12:27:58.630Z,12.00
2023-11-07T12:33:20.437Z,12.00
2023-11-07T12:38:45.911Z,11.70
2023-11-07T12:44:15.360Z,11.30
2023-11-07T12:49:40.809Z,11.10
2023-11-07T12:55:18.574Z,11.00
2023-11-07T13:01:00.486Z,11.10
2023-11-07T13:06:22.452Z,10.70
2023-11-07T13:11:45.453Z,10.80
2023-11-07T13:17:08.889Z,10.60
2023-11-07T13:22:30.869Z,10.70
2023-11-07T13:27:54.498Z,10.90
2023-11-07T13:33:16.487Z,10.90
2023-11-07T13:38:38.250Z,10.70
2023-11-07T13:43:59.972Z,10.60
2023-11-07T13:49:22.474Z,10.50
2023-11-07T13:54:44.082Z,10.30
2023-11-07T14:00:12.658Z,10.30
2023-11-07T14:05:34.861Z,10.30
2023-11-07T14:10:56.281Z,10.20
2023-11-07T14:16:18.297Z,10.20
2023-11-07T14:21:42.262Z,10.00
2023-11-07T14:27:08.195Z,10.00
2023-11-07T14:32:30.173Z,10.20
2023-11-07T14:37:52.038Z,9.90
2023-11-07T14:43:17.397Z,10.10
2023-11-07T14:48:40.685Z,10.00
2023-11-07T14:54:02.767Z,10.10
2023-11-07T14:59:25.675Z,10.00
2023-11-07T15:04:47.265Z,10.00
2023-11-07T15:10:11.985Z,10.00
2023-11-07T15:15:34.731Z,9.80
2023-11-07T15:20:57.975Z,9.90
2023-11-07T15:26:19.511Z,9.90
2023-11-07T15:31:40.897Z,9.70
2023-11-07T15:37:02.468Z,9.70
2023-11-07T15:42:24.403Z,9.60
2023-11-07T15:47:47.800Z,9.50
2023-11-07T15:53:10.274Z,9.40
2023-11-07T15:58:32.822Z,9.30
2023-11-07T16:03:55.681Z,9.20
2023-11-07T16:09:17.598Z,9.20
2023-11-07T16:14:41.955Z,9.30
2023-11-07T16:20:03.489Z,9.20
2023-11-07T16:25:25.199Z,9.20
2023-11-07T16:30:46.743Z,9.00
2023-11-07T16:36:08.406Z,9.00
2023-11-07T16:41:32.480Z,9.10
2023-11-07T16:46:54.866Z,9.10
2023-11-07T16:52:17.129Z,9.00
2023-11-07T16:57:39.025Z,8.80
2023-11-07T17:03:00.640Z,8.80
2023-11-07T17:08:22.853Z,8.70
2023-11-07T17:13:44.303Z,8.70
2023-11-07T17:19:06.322Z,8.70
2023-11-07T17:24:29.029Z,8.80
2023-11-07T17:29:50.712Z,8.80
2023-11-07T17:35:12.483Z,8.80
2023-11-07T17:40:37.991Z,8.80
2023-11-07T17:45:59.611Z,8.80
2023-11-07T17:51:26.477Z,8.90
2023-11-07T17:56:48.485Z,8.90
2023-11-07T18:02:10.055Z,8.80
2023-11-07T18:07:32.782Z,8.70
2023-11-07T18:12:54.747Z,8.70
2023-11-07T18:18:16.817Z,8.70
2023-11-07T18:23:41.520Z,8.60
2023-11-07T18:29:03.188Z,8.60
2023-11-07T18:34:25.065Z,8.60
2023-11-07T18:39:46.946Z,8.60
2023-11-07T18:45:11.439Z,8.50
2023-11-07T18:50:33.315Z,8.60
2023-11-07T18:55:55.372Z,8.40
2023-11-07T19:01:17.032Z,8.40
2023-11-07T19:06:38.666Z,8.30
2023-11-07T19:12:02.981Z,8.40
2023-11-07T19:17:24.854Z,8.30
2023-11-07T19:22:46.448Z,8.30
2023-11-07T19:28:08.145Z,8.30
2023-11-07T19:33:29.968Z,8.30
2023-11-07T19:38:51.736Z,8.20
2023-11-07T19:44:13.231Z,8.40
2023-11-07T19:49:34.957Z,8.30
2023-11-07T19:54:56.955Z,8.30
2023-11-07T20:00:25.090Z,8.40
2023-11-07T20:05:48.375Z,8.30
2023-11-07T20:11:10.675Z,8.30
2023-11-07T20:16:32.208Z,8.30
2023-11-07T20:21:54.025Z,8.30
2023-11-07T20:27:15.947Z,8.40
2023-11-07T20:32:37.760Z,8.30
2023-11-07T20:37:59.597Z,8.30
2023-11-07T20:43:20.938Z,8.30
2023-11-07T20:48:42.540Z,8.40
2023-11-07T20:54:05.240Z,8.30
2023-11-07T20:59:27.483Z,8.30
2023-11-07T21:04:49.430Z,8.40
2023-11-07T21:10:12.321Z,8.40
2023-11-07T21:15:34.035Z,8.30
2023-11-07T21:20:55.527Z,8.40
2023-11-07T21:26:17.332Z,8.30
2023-11-07T21:31:40.175Z,8.30
2023-11-07T21:37:01.545Z,8.40
2023-11-07T21:42:23.762Z,8.20
2023-11-07T21:47:45.902Z,8.20
2023-11-07T21:53:07.363Z,8.10
2023-11-07T21:58:29.016Z,7.90
2023-11-07T22:03:50.646Z,8.00
2023-11-07T22:09:12.198Z,8.00
2023-11-07T22:14:36.795Z,7.90
2023-11-07T22:20:01.612Z,7.80
2023-11-07T22:25:23.243Z,7.80
2023-11-07T22:30:44.958Z,7.80
2023-11-07T22:36:08.794Z,7.90
2023-11-07T22:41:30.349Z,7.90
2023-11-07T22:46:52.313Z,7.70
2023-11-07T22:52:13.704Z,7.60
2023-11-07T22:57:35.464Z,7.60
2023-11-07T23:03:00.240Z,7.50
2023-11-07T23:08:22.237Z,7.50
2023-11-07T23:13:43.872Z,7.30
2023-11-07T23:19:05.828Z,7.40
2023-11-07T23:24:27.733Z,7.40
2023-11-07T23:29:55.227Z,7.40
2023-11-07T23:35:18.522Z,7.40
2023-11-07T23:40:40.743Z,7.40
2023-11-07T23:46:02.682Z,7.40
2023-11-07T23:51:24.178Z,7.40
2023-11-07T23:56:46.133Z,7.50
